sensor_id;sensor_type;location;lat;lon;timestamp;P1;durP1;ratioP1;P2;durP2;ratioP2
62880;SDS011;48969;49.934;8.596;2023-10-09T00:00:23;5.43;;;3.85;;
62880;SDS011;48969;49.934;8.596;2023-10-09T00:03:16;7.30;;;4.10;;
62880;SDS011;48969;49.934;8.596;2023-10-09T00:05:42;7.82;;;4.40;;
62880;SDS011;48969;49.934;8.596;2023-10-09T00:08:16;7.28;;;4.18;;
62880;SDS011;48969;49.934;8.596;2023-10-09T00:10:44;6.47;;;4.18;;
62880;SDS011;48969;49.934;8.596;2023-10-09T00:13:19;6.07;;;4.25;;
62880;SDS011;48969;49.934;8.596;2023-10-09T00:15:44;8.43;;;4.55;;
62880;SDS011;48969;49.934;8.596;2023-10-09T00:18:17;8.48;;;4.88;;
62880;SDS011;48969;49.934;8.596;2023-10-09T00:20:47;5.72;;;3.75;;
62880;SDS011;48969;49.934;8.596;2023-10-09T00:23:18;6.45;;;4.35;;
62880;SDS011;48969;49.934;8.596;2023-10-09T00:25:50;6.70;;;4.35;;
62880;SDS011;48969;49.934;8.596;2023-10-09T00:28:33;6.80;;;4.50;;
62880;SDS011;48969;49.934;8.596;2023-10-09T00:30:59;6.40;;;4.65;;
62880;SDS011;48969;49.934;8.596;2023-10-09T00:33:24;6.07;;;3.67;;
62880;SDS011;48969;49.934;8.596;2023-10-09T00:35:49;5.18;;;3.70;;
62880;SDS011;48969;49.934;8.596;2023-10-09T00:38:20;6.80;;;4.47;;
62880;SDS011;48969;49.934;8.596;2023-10-09T00:40:46;7.50;;;4.20;;
62880;SDS011;48969;49.934;8.596;2023-10-09T00:43:27;6.88;;;3.70;;
62880;SDS011;48969;49.934;8.596;2023-10-09T00:45:54;7.60;;;4.13;;
62880;SDS011;48969;49.934;8.596;2023-10-09T00:48:19;7.53;;;4.73;;
62880;SDS011;48969;49.934;8.596;2023-10-09T00:50:56;5.40;;;4.20;;
62880;SDS011;48969;49.934;8.596;2023-10-09T00:53:24;6.57;;;4.03;;
62880;SDS011;48969;49.934;8.596;2023-10-09T00:55:57;5.20;;;4.43;;
62880;SDS011;48969;49.934;8.596;2023-10-09T00:58:22;8.10;;;4.57;;
62880;SDS011;48969;49.934;8.596;2023-10-09T01:00:51;8.85;;;5.00;;
62880;SDS011;48969;49.934;8.596;2023-10-09T01:03:17;5.93;;;4.53;;
62880;SDS011;48969;49.934;8.596;2023-10-09T01:05:43;7.68;;;4.53;;
62880;SDS011;48969;49.934;8.596;2023-10-09T01:08:17;9.32;;;4.70;;
62880;SDS011;48969;49.934;8.596;2023-10-09T01:10:50;8.13;;;4.50;;
62880;SDS011;48969;49.934;8.596;2023-10-09T01:13:17;9.70;;;4.88;;
62880;SDS011;48969;49.934;8.596;2023-10-09T01:15:45;7.35;;;4.20;;
62880;SDS011;48969;49.934;8.596;2023-10-09T01:18:10;7.50;;;4.75;;
62880;SDS011;48969;49.934;8.596;2023-10-09T01:20:37;8.05;;;4.78;;
62880;SDS011;48969;49.934;8.596;2023-10-09T01:23:12;5.97;;;4.07;;
62880;SDS011;48969;49.934;8.596;2023-10-09T01:25:37;5.57;;;4.68;;
62880;SDS011;48969;49.934;8.596;2023-10-09T01:30:35;7.50;;;4.63;;
62880;SDS011;48969;49.934;8.596;2023-10-09T01:33:06;7.28;;;4.68;;
62880;SDS011;48969;49.934;8.596;2023-10-09T01:35:37;8.38;;;4.53;;
62880;SDS011;48969;49.934;8.596;2023-10-09T01:38:11;7.82;;;4.53;;
62880;SDS011;48969;49.934;8.596;2023-10-09T01:40:39;8.80;;;4.50;;
62880;SDS011;48969;49.934;8.596;2023-10-09T01:43:05;6.72;;;4.60;;
62880;SDS011;48969;49.934;8.596;2023-10-09T01:45:30;7.18;;;4.47;;
62880;SDS011;48969;49.934;8.596;2023-10-09T01:48:06;7.40;;;4.97;;
62880;SDS011;48969;49.934;8.596;2023-10-09T01:50:33;7.97;;;4.68;;
62880;SDS011;48969;49.934;8.596;2023-10-09T01:53:00;9.05;;;4.70;;
62880;SDS011;48969;49.934;8.596;2023-10-09T01:55:28;7.22;;;4.70;;
62880;SDS011;48969;49.934;8.596;2023-10-09T01:57:59;7.10;;;4.60;;
62880;SDS011;48969;49.934;8.596;2023-10-09T02:00:30;7.40;;;5.05;;
62880;SDS011;48969;49.934;8.596;2023-10-09T02:02:55;7.18;;;4.93;;
62880;SDS011;48969;49.934;8.596;2023-10-09T02:05:20;6.57;;;4.10;;
62880;SDS011;48969;49.934;8.596;2023-10-09T02:07:45;5.30;;;4.07;;
62880;SDS011;48969;49.934;8.596;2023-10-09T02:10:16;7.95;;;4.00;;
62880;SDS011;48969;49.934;8.596;2023-10-09T02:13:01;7.78;;;4.50;;
62880;SDS011;48969;49.934;8.596;2023-10-09T02:15:32;7.47;;;4.85;;
62880;SDS011;48969;49.934;8.596;2023-10-09T02:18:06;7.43;;;4.00;;
62880;SDS011;48969;49.934;8.596;2023-10-09T02:20:48;5.95;;;4.05;;
62880;SDS011;48969;49.934;8.596;2023-10-09T02:23:21;5.70;;;3.83;;
62880;SDS011;48969;49.934;8.596;2023-10-09T02:25:50;8.75;;;4.45;;
62880;SDS011;48969;49.934;8.596;2023-10-09T02:28:18;7.20;;;4.20;;
62880;SDS011;48969;49.934;8.596;2023-10-09T02:30:44;8.50;;;4.85;;
62880;SDS011;48969;49.934;8.596;2023-10-09T02:33:13;7.70;;;4.60;;
62880;SDS011;48969;49.934;8.596;2023-10-09T02:35:38;8.45;;;4.53;;
62880;SDS011;48969;49.934;8.596;2023-10-09T02:38:04;6.43;;;4.05;;
62880;SDS011;48969;49.934;8.596;2023-10-09T02:40:33;6.43;;;3.95;;
62880;SDS011;48969;49.934;8.596;2023-10-09T02:43:06;5.18;;;4.30;;
62880;SDS011;48969;49.934;8.596;2023-10-09T02:45:31;7.25;;;4.20;;
62880;SDS011;48969;49.934;8.596;2023-10-09T02:48:00;7.18;;;4.63;;
62880;SDS011;48969;49.934;8.596;2023-10-09T02:50:35;6.80;;;4.50;;
62880;SDS011;48969;49.934;8.596;2023-10-09T02:53:03;6.13;;;4.25;;
62880;SDS011;48969;49.934;8.596;2023-10-09T02:55:34;5.28;;;3.95;;
62880;SDS011;48969;49.934;8.596;2023-10-09T02:58:03;5.47;;;3.80;;
62880;SDS011;48969;49.934;8.596;2023-10-09T03:00:33;6.55;;;4.07;;
62880;SDS011;48969;49.934;8.596;2023-10-09T03:03:01;6.70;;;3.90;;
62880;SDS011;48969;49.934;8.596;2023-10-09T03:05:31;5.30;;;3.92;;
62880;SDS011;48969;49.934;8.596;2023-10-09T03:07:56;8.23;;;4.38;;
62880;SDS011;48969;49.934;8.596;2023-10-09T03:10:22;5.77;;;4.13;;
62880;SDS011;48969;49.934;8.596;2023-10-09T03:12:47;7.32;;;4.70;;
62880;SDS011;48969;49.934;8.596;2023-10-09T03:15:16;7.35;;;4.50;;
62880;SDS011;48969;49.934;8.596;2023-10-09T03:17:43;7.47;;;4.93;;
62880;SDS011;48969;49.934;8.596;2023-10-09T03:20:09;8.93;;;5.15;;
62880;SDS011;48969;49.934;8.596;2023-10-09T03:22:37;7.55;;;5.10;;
62880;SDS011;48969;49.934;8.596;2023-10-09T03:25:03;7.78;;;4.93;;
62880;SDS011;48969;49.934;8.596;2023-10-09T03:27:28;6.72;;;4.75;;
62880;SDS011;48969;49.934;8.596;2023-10-09T03:29:53;7.50;;;4.20;;
62880;SDS011;48969;49.934;8.596;2023-10-09T03:32:18;7.28;;;5.15;;
62880;SDS011;48969;49.934;8.596;2023-10-09T03:34:44;9.75;;;5.15;;
62880;SDS011;48969;49.934;8.596;2023-10-09T03:37:09;7.50;;;4.55;;
62880;SDS011;48969;49.934;8.596;2023-10-09T03:39:46;7.10;;;4.20;;
62880;SDS011;48969;49.934;8.596;2023-10-09T03:42:12;6.78;;;4.70;;
62880;SDS011;48969;49.934;8.596;2023-10-09T03:44:44;7.13;;;5.05;;
62880;SDS011;48969;49.934;8.596;2023-10-09T03:47:13;8.52;;;5.78;;
62880;SDS011;48969;49.934;8.596;2023-10-09T03:49:41;7.82;;;5.55;;
62880;SDS011;48969;49.934;8.596;2023-10-09T03:52:06;7.23;;;4.90;;
62880;SDS011;48969;49.934;8.596;2023-10-09T03:54:32;12.07;;;6.63;;
62880;SDS011;48969;49.934;8.596;2023-10-09T03:57:00;12.77;;;7.38;;
62880;SDS011;48969;49.934;8.596;2023-10-09T03:59:25;12.97;;;7.57;;
62880;SDS011;48969;49.934;8.596;2023-10-09T04:01:55;12.18;;;6.93;;
62880;SDS011;48969;49.934;8.596;2023-10-09T04:04:22;10.38;;;5.65;;
62880;SDS011;48969;49.934;8.596;2023-10-09T04:06:48;8.35;;;6.03;;
62880;SDS011;48969;49.934;8.596;2023-10-09T04:09:13;9.18;;;6.10;;
62880;SDS011;48969;49.934;8.596;2023-10-09T04:11:52;9.77;;;6.53;;
62880;SDS011;48969;49.934;8.596;2023-10-09T04:14:39;9.00;;;5.78;;
62880;SDS011;48969;49.934;8.596;2023-10-09T04:17:19;10.45;;;6.03;;
62880;SDS011;48969;49.934;8.596;2023-10-09T04:19:47;10.88;;;6.20;;
62880;SDS011;48969;49.934;8.596;2023-10-09T04:22:38;11.15;;;7.10;;
62880;SDS011;48969;49.934;8.596;2023-10-09T04:25:17;13.13;;;7.00;;
62880;SDS011;48969;49.934;8.596;2023-10-09T04:27:51;13.30;;;7.55;;
62880;SDS011;48969;49.934;8.596;2023-10-09T04:30:18;15.13;;;6.85;;
62880;SDS011;48969;49.934;8.596;2023-10-09T04:32:43;14.82;;;7.15;;
62880;SDS011;48969;49.934;8.596;2023-10-09T04:35:13;11.63;;;6.40;;
62880;SDS011;48969;49.934;8.596;2023-10-09T04:37:47;13.73;;;7.65;;
62880;SDS011;48969;49.934;8.596;2023-10-09T04:40:29;15.52;;;7.15;;
62880;SDS011;48969;49.934;8.596;2023-10-09T04:43:03;10.75;;;6.57;;
62880;SDS011;48969;49.934;8.596;2023-10-09T04:45:38;12.50;;;6.97;;
62880;SDS011;48969;49.934;8.596;2023-10-09T04:48:12;10.98;;;6.85;;
62880;SDS011;48969;49.934;8.596;2023-10-09T04:50:57;10.93;;;7.03;;
62880;SDS011;48969;49.934;8.596;2023-10-09T04:53:54;10.15;;;6.57;;
62880;SDS011;48969;49.934;8.596;2023-10-09T04:59:16;13.23;;;6.90;;
62880;SDS011;48969;49.934;8.596;2023-10-09T05:01:43;12.32;;;7.00;;
62880;SDS011;48969;49.934;8.596;2023-10-09T05:04:22;11.30;;;6.68;;
62880;SDS011;48969;49.934;8.596;2023-10-09T05:07:08;10.38;;;5.85;;
62880;SDS011;48969;49.934;8.596;2023-10-09T05:09:53;10.15;;;5.95;;
62880;SDS011;48969;49.934;8.596;2023-10-09T05:12:22;12.55;;;6.85;;
62880;SDS011;48969;49.934;8.596;2023-10-09T05:14:51;14.82;;;6.70;;
62880;SDS011;48969;49.934;8.596;2023-10-09T05:17:33;9.70;;;5.97;;
62880;SDS011;48969;49.934;8.596;2023-10-09T05:19:59;10.88;;;6.13;;
62880;SDS011;48969;49.934;8.596;2023-10-09T05:22:44;12.27;;;6.55;;
62880;SDS011;48969;49.934;8.596;2023-10-09T05:25:22;11.40;;;6.13;;
62880;SDS011;48969;49.934;8.596;2023-10-09T05:28:07;12.73;;;6.45;;
62880;SDS011;48969;49.934;8.596;2023-10-09T05:30:50;12.73;;;6.30;;
62880;SDS011;48969;49.934;8.596;2023-10-09T05:33:28;11.95;;;6.13;;
62880;SDS011;48969;49.934;8.596;2023-10-09T05:35:53;15.02;;;6.65;;
62880;SDS011;48969;49.934;8.596;2023-10-09T05:38:40;12.05;;;6.57;;
62880;SDS011;48969;49.934;8.596;2023-10-09T05:41:11;13.98;;;6.50;;
62880;SDS011;48969;49.934;8.596;2023-10-09T05:43:56;11.40;;;6.63;;
62880;SDS011;48969;49.934;8.596;2023-10-09T05:46:39;12.10;;;6.65;;
62880;SDS011;48969;49.934;8.596;2023-10-09T05:49:25;10.02;;;6.15;;
62880;SDS011;48969;49.934;8.596;2023-10-09T05:52:07;13.35;;;6.40;;
62880;SDS011;48969;49.934;8.596;2023-10-09T05:54:52;16.00;;;6.93;;
62880;SDS011;48969;49.934;8.596;2023-10-09T05:57:53;12.80;;;6.63;;
62880;SDS011;48969;49.934;8.596;2023-10-09T06:00:34;10.65;;;6.78;;
62880;SDS011;48969;49.934;8.596;2023-10-09T06:03:18;13.57;;;6.82;;
62880;SDS011;48969;49.934;8.596;2023-10-09T06:05:43;13.32;;;7.00;;
62880;SDS011;48969;49.934;8.596;2023-10-09T06:08:30;11.85;;;6.18;;
62880;SDS011;48969;49.934;8.596;2023-10-09T06:11:08;12.73;;;6.47;;
62880;SDS011;48969;49.934;8.596;2023-10-09T06:13:56;10.15;;;5.97;;
62880;SDS011;48969;49.934;8.596;2023-10-09T06:16:33;11.27;;;5.88;;
62880;SDS011;48969;49.934;8.596;2023-10-09T06:19:12;10.90;;;6.28;;
62880;SDS011;48969;49.934;8.596;2023-10-09T06:21:40;13.23;;;6.63;;
62880;SDS011;48969;49.934;8.596;2023-10-09T06:24:24;14.50;;;5.88;;
62880;SDS011;48969;49.934;8.596;2023-10-09T06:26:51;11.77;;;5.65;;
62880;SDS011;48969;49.934;8.596;2023-10-09T06:29:36;10.75;;;6.13;;
62880;SDS011;48969;49.934;8.596;2023-10-09T06:32:02;11.73;;;6.05;;
62880;SDS011;48969;49.934;8.596;2023-10-09T06:34:46;13.13;;;6.55;;
62880;SDS011;48969;49.934;8.596;2023-10-09T06:37:16;11.30;;;5.60;;
62880;SDS011;48969;49.934;8.596;2023-10-09T06:39:59;15.02;;;6.63;;
62880;SDS011;48969;49.934;8.596;2023-10-09T06:42:25;10.68;;;5.75;;
62880;SDS011;48969;49.934;8.596;2023-10-09T06:45:09;15.35;;;6.50;;
62880;SDS011;48969;49.934;8.596;2023-10-09T06:47:40;11.82;;;6.20;;
62880;SDS011;48969;49.934;8.596;2023-10-09T06:50:18;13.23;;;6.45;;
62880;SDS011;48969;49.934;8.596;2023-10-09T06:52:49;13.05;;;6.35;;
62880;SDS011;48969;49.934;8.596;2023-10-09T06:55:36;12.13;;;5.60;;
62880;SDS011;48969;49.934;8.596;2023-10-09T06:58:18;11.38;;;5.30;;
62880;SDS011;48969;49.934;8.596;2023-10-09T07:00:52;13.18;;;5.65;;
62880;SDS011;48969;49.934;8.596;2023-10-09T07:03:26;13.32;;;6.65;;
62880;SDS011;48969;49.934;8.596;2023-10-09T07:06:20;10.63;;;5.72;;
62880;SDS011;48969;49.934;8.596;2023-10-09T07:09:00;11.95;;;5.88;;
62880;SDS011;48969;49.934;8.596;2023-10-09T07:11:34;16.45;;;6.47;;
62880;SDS011;48969;49.934;8.596;2023-10-09T07:14:05;11.50;;;6.10;;
62880;SDS011;48969;49.934;8.596;2023-10-09T07:16:32;15.77;;;6.25;;
62880;SDS011;48969;49.934;8.596;2023-10-09T07:19:03;12.15;;;5.80;;
62880;SDS011;48969;49.934;8.596;2023-10-09T07:21:40;15.45;;;6.18;;
62880;SDS011;48969;49.934;8.596;2023-10-09T07:24:16;12.23;;;6.15;;
62880;SDS011;48969;49.934;8.596;2023-10-09T07:26:42;13.68;;;6.13;;
62880;SDS011;48969;49.934;8.596;2023-10-09T07:29:17;12.48;;;6.35;;
62880;SDS011;48969;49.934;8.596;2023-10-09T07:31:46;14.25;;;5.72;;
62880;SDS011;48969;49.934;8.596;2023-10-09T07:34:12;12.60;;;5.78;;
62880;SDS011;48969;49.934;8.596;2023-10-09T07:36:56;9.35;;;5.38;;
62880;SDS011;48969;49.934;8.596;2023-10-09T07:39:30;13.90;;;5.95;;
62880;SDS011;48969;49.934;8.596;2023-10-09T07:42:00;11.32;;;5.72;;
62880;SDS011;48969;49.934;8.596;2023-10-09T07:44:40;9.82;;;5.95;;
62880;SDS011;48969;49.934;8.596;2023-10-09T07:47:07;11.68;;;5.80;;
62880;SDS011;48969;49.934;8.596;2023-10-09T07:49:50;13.00;;;5.72;;
62880;SDS011;48969;49.934;8.596;2023-10-09T07:52:19;13.02;;;6.38;;
62880;SDS011;48969;49.934;8.596;2023-10-09T07:54:47;12.20;;;5.97;;
62880;SDS011;48969;49.934;8.596;2023-10-09T07:57:16;14.90;;;6.53;;
62880;SDS011;48969;49.934;8.596;2023-10-09T07:59:42;17.45;;;6.18;;
62880;SDS011;48969;49.934;8.596;2023-10-09T08:02:22;12.07;;;5.60;;
62880;SDS011;48969;49.934;8.596;2023-10-09T08:05:00;12.82;;;6.13;;
62880;SDS011;48969;49.934;8.596;2023-10-09T08:07:29;10.93;;;5.73;;
62880;SDS011;48969;49.934;8.596;2023-10-09T08:10:03;12.27;;;6.63;;
62880;SDS011;48969;49.934;8.596;2023-10-09T08:12:44;13.30;;;6.53;;
62880;SDS011;48969;49.934;8.596;2023-10-09T08:15:13;10.90;;;5.50;;
62880;SDS011;48969;49.934;8.596;2023-10-09T08:20:29;10.70;;;5.75;;
62880;SDS011;48969;49.934;8.596;2023-10-09T08:23:14;10.85;;;5.57;;
62880;SDS011;48969;49.934;8.596;2023-10-09T08:25:58;10.13;;;5.40;;
62880;SDS011;48969;49.934;8.596;2023-10-09T08:28:37;12.70;;;6.13;;
62880;SDS011;48969;49.934;8.596;2023-10-09T08:31:17;9.35;;;5.53;;
62880;SDS011;48969;49.934;8.596;2023-10-09T08:34:10;13.52;;;6.20;;
62880;SDS011;48969;49.934;8.596;2023-10-09T08:36:48;14.63;;;6.20;;
62880;SDS011;48969;49.934;8.596;2023-10-09T08:39:17;15.68;;;5.53;;
62880;SDS011;48969;49.934;8.596;2023-10-09T08:41:50;14.90;;;6.88;;
62880;SDS011;48969;49.934;8.596;2023-10-09T08:44:17;12.07;;;6.40;;
62880;SDS011;48969;49.934;8.596;2023-10-09T08:46:47;11.65;;;5.65;;
62880;SDS011;48969;49.934;8.596;2023-10-09T08:49:13;13.60;;;6.20;;
62880;SDS011;48969;49.934;8.596;2023-10-09T08:51:39;14.60;;;6.80;;
62880;SDS011;48969;49.934;8.596;2023-10-09T08:54:07;13.50;;;5.95;;
62880;SDS011;48969;49.934;8.596;2023-10-09T08:56:36;11.63;;;5.93;;
62880;SDS011;48969;49.934;8.596;2023-10-09T08:59:01;11.48;;;6.53;;
62880;SDS011;48969;49.934;8.596;2023-10-09T09:01:27;10.77;;;6.00;;
62880;SDS011;48969;49.934;8.596;2023-10-09T09:03:57;13.75;;;5.88;;
62880;SDS011;48969;49.934;8.596;2023-10-09T09:06:22;11.93;;;5.65;;
62880;SDS011;48969;49.934;8.596;2023-10-09T09:08:48;11.48;;;6.32;;
62880;SDS011;48969;49.934;8.596;2023-10-09T09:11:15;11.40;;;6.00;;
62880;SDS011;48969;49.934;8.596;2023-10-09T09:16:14;11.43;;;6.05;;
62880;SDS011;48969;49.934;8.596;2023-10-09T09:18:50;13.77;;;6.47;;
62880;SDS011;48969;49.934;8.596;2023-10-09T09:21:25;12.20;;;5.90;;
62880;SDS011;48969;49.934;8.596;2023-10-09T09:23:58;14.65;;;6.22;;
62880;SDS011;48969;49.934;8.596;2023-10-09T09:26:36;11.32;;;5.85;;
62880;SDS011;48969;49.934;8.596;2023-10-09T09:29:02;13.45;;;6.25;;
62880;SDS011;48969;49.934;8.596;2023-10-09T09:31:28;13.25;;;5.82;;
62880;SDS011;48969;49.934;8.596;2023-10-09T09:33:56;12.43;;;6.30;;
62880;SDS011;48969;49.934;8.596;2023-10-09T09:36:23;12.02;;;6.80;;
62880;SDS011;48969;49.934;8.596;2023-10-09T09:38:48;12.60;;;5.82;;
62880;SDS011;48969;49.934;8.596;2023-10-09T09:41:14;15.32;;;6.38;;
62880;SDS011;48969;49.934;8.596;2023-10-09T09:43:58;12.55;;;6.32;;
62880;SDS011;48969;49.934;8.596;2023-10-09T09:46:26;12.55;;;5.80;;
62880;SDS011;48969;49.934;8.596;2023-10-09T09:49:05;15.63;;;6.18;;
62880;SDS011;48969;49.934;8.596;2023-10-09T09:51:50;13.02;;;5.90;;
62880;SDS011;48969;49.934;8.596;2023-10-09T09:54:15;10.27;;;5.77;;
62880;SDS011;48969;49.934;8.596;2023-10-09T09:56:44;11.32;;;5.95;;
62880;SDS011;48969;49.934;8.596;2023-10-09T09:59:15;14.07;;;6.40;;
62880;SDS011;48969;49.934;8.596;2023-10-09T10:01:47;16.30;;;5.93;;
62880;SDS011;48969;49.934;8.596;2023-10-09T10:04:21;12.90;;;5.50;;
62880;SDS011;48969;49.934;8.596;2023-10-09T10:06:48;12.90;;;6.25;;
62880;SDS011;48969;49.934;8.596;2023-10-09T10:09:36;10.45;;;5.90;;
62880;SDS011;48969;49.934;8.596;2023-10-09T10:12:10;11.70;;;5.68;;
62880;SDS011;48969;49.934;8.596;2023-10-09T10:14:51;11.57;;;5.93;;
62880;SDS011;48969;49.934;8.596;2023-10-09T10:17:17;13.57;;;5.85;;
62880;SDS011;48969;49.934;8.596;2023-10-09T10:22:39;13.18;;;5.72;;
62880;SDS011;48969;49.934;8.596;2023-10-09T10:25:04;11.13;;;5.22;;
62880;SDS011;48969;49.934;8.596;2023-10-09T10:27:34;10.90;;;6.43;;
62880;SDS011;48969;49.934;8.596;2023-10-09T10:35:21;12.25;;;6.10;;
62880;SDS011;48969;49.934;8.596;2023-10-09T10:37:57;10.98;;;5.63;;
62880;SDS011;48969;49.934;8.596;2023-10-09T10:40:36;13.20;;;6.05;;
62880;SDS011;48969;49.934;8.596;2023-10-09T10:43:22;14.98;;;6.20;;
62880;SDS011;48969;49.934;8.596;2023-10-09T10:46:02;13.30;;;6.20;;
62880;SDS011;48969;49.934;8.596;2023-10-09T10:48:33;13.23;;;5.80;;
62880;SDS011;48969;49.934;8.596;2023-10-09T10:51:04;13.52;;;5.97;;
62880;SDS011;48969;49.934;8.596;2023-10-09T10:53:30;13.15;;;5.90;;
62880;SDS011;48969;49.934;8.596;2023-10-09T10:56:12;10.57;;;5.82;;
62880;SDS011;48969;49.934;8.596;2023-10-09T10:58:40;18.02;;;5.82;;
62880;SDS011;48969;49.934;8.596;2023-10-09T11:01:35;14.00;;;6.13;;
62880;SDS011;48969;49.934;8.596;2023-10-09T11:04:24;10.70;;;5.25;;
62880;SDS011;48969;49.934;8.596;2023-10-09T11:06:53;12.25;;;6.03;;
62880;SDS011;48969;49.934;8.596;2023-10-09T11:09:25;13.70;;;5.85;;
62880;SDS011;48969;49.934;8.596;2023-10-09T11:12:03;13.70;;;6.13;;
62880;SDS011;48969;49.934;8.596;2023-10-09T11:14:47;10.77;;;5.55;;
62880;SDS011;48969;49.934;8.596;2023-10-09T11:17:31;11.88;;;5.57;;
62880;SDS011;48969;49.934;8.596;2023-10-09T11:19:56;15.65;;;6.25;;
62880;SDS011;48969;49.934;8.596;2023-10-09T11:22:21;15.57;;;5.57;;
62880;SDS011;48969;49.934;8.596;2023-10-09T11:24:53;13.10;;;5.10;;
62880;SDS011;48969;49.934;8.596;2023-10-09T11:27:26;12.48;;;5.20;;
62880;SDS011;48969;49.934;8.596;2023-10-09T11:29:57;14.60;;;5.88;;
62880;SDS011;48969;49.934;8.596;2023-10-09T11:32:30;11.65;;;5.22;;
62880;SDS011;48969;49.934;8.596;2023-10-09T11:35:10;9.63;;;5.47;;
62880;SDS011;48969;49.934;8.596;2023-10-09T11:37:36;17.17;;;10.00;;
62880;SDS011;48969;49.934;8.596;2023-10-09T11:40:26;10.70;;;5.55;;
62880;SDS011;48969;49.934;8.596;2023-10-09T11:42:53;12.85;;;5.90;;
62880;SDS011;48969;49.934;8.596;2023-10-09T11:45:25;12.35;;;5.28;;
62880;SDS011;48969;49.934;8.596;2023-10-09T11:47:54;17.00;;;5.38;;
62880;SDS011;48969;49.934;8.596;2023-10-09T11:50:40;12.43;;;5.07;;
62880;SDS011;48969;49.934;8.596;2023-10-09T11:53:11;10.63;;;4.80;;
62880;SDS011;48969;49.934;8.596;2023-10-09T11:55:45;11.75;;;5.05;;
62880;SDS011;48969;49.934;8.596;2023-10-09T11:58:13;11.18;;;5.47;;
62880;SDS011;48969;49.934;8.596;2023-10-09T12:00:39;10.63;;;5.20;;
62880;SDS011;48969;49.934;8.596;2023-10-09T12:03:10;12.52;;;6.15;;
62880;SDS011;48969;49.934;8.596;2023-10-09T12:05:36;11.73;;;5.50;;
62880;SDS011;48969;49.934;8.596;2023-10-09T12:08:03;10.32;;;5.40;;
62880;SDS011;48969;49.934;8.596;2023-10-09T12:10:28;12.90;;;4.88;;
62880;SDS011;48969;49.934;8.596;2023-10-09T12:12:55;12.07;;;5.32;;
62880;SDS011;48969;49.934;8.596;2023-10-09T12:15:23;11.13;;;5.05;;
62880;SDS011;48969;49.934;8.596;2023-10-09T12:17:50;11.93;;;5.60;;
62880;SDS011;48969;49.934;8.596;2023-10-09T12:20:18;9.50;;;4.68;;
62880;SDS011;48969;49.934;8.596;2023-10-09T12:22:57;12.40;;;5.20;;
62880;SDS011;48969;49.934;8.596;2023-10-09T12:25:23;11.82;;;4.90;;
62880;SDS011;48969;49.934;8.596;2023-10-09T12:27:48;10.55;;;4.68;;
62880;SDS011;48969;49.934;8.596;2023-10-09T12:30:13;10.95;;;4.90;;
62880;SDS011;48969;49.934;8.596;2023-10-09T12:32:39;9.20;;;4.70;;
62880;SDS011;48969;49.934;8.596;2023-10-09T12:35:05;11.25;;;4.88;;
62880;SDS011;48969;49.934;8.596;2023-10-09T12:37:42;10.25;;;5.03;;
62880;SDS011;48969;49.934;8.596;2023-10-09T12:40:08;9.13;;;4.50;;
62880;SDS011;48969;49.934;8.596;2023-10-09T12:42:35;8.93;;;5.13;;
62880;SDS011;48969;49.934;8.596;2023-10-09T12:45:01;10.38;;;4.38;;
62880;SDS011;48969;49.934;8.596;2023-10-09T12:47:33;11.43;;;4.93;;
62880;SDS011;48969;49.934;8.596;2023-10-09T12:49:58;10.57;;;4.67;;
62880;SDS011;48969;49.934;8.596;2023-10-09T12:52:23;9.23;;;5.03;;
62880;SDS011;48969;49.934;8.596;2023-10-09T12:54:54;9.00;;;4.85;;
62880;SDS011;48969;49.934;8.596;2023-10-09T12:57:19;9.23;;;4.60;;
62880;SDS011;48969;49.934;8.596;2023-10-09T12:59:45;11.50;;;4.87;;
62880;SDS011;48969;49.934;8.596;2023-10-09T13:02:19;9.32;;;5.13;;
62880;SDS011;48969;49.934;8.596;2023-10-09T13:04:54;6.95;;;4.20;;
62880;SDS011;48969;49.934;8.596;2023-10-09T13:07:19;15.30;;;4.82;;
62880;SDS011;48969;49.934;8.596;2023-10-09T13:09:47;9.88;;;5.20;;
62880;SDS011;48969;49.934;8.596;2023-10-09T13:12:32;11.02;;;4.88;;
62880;SDS011;48969;49.934;8.596;2023-10-09T13:14:57;12.68;;;4.97;;
62880;SDS011;48969;49.934;8.596;2023-10-09T13:17:22;8.07;;;4.80;;
62880;SDS011;48969;49.934;8.596;2023-10-09T13:19:52;9.13;;;4.78;;
62880;SDS011;48969;49.934;8.596;2023-10-09T13:22:17;10.50;;;4.90;;
62880;SDS011;48969;49.934;8.596;2023-10-09T13:24:42;10.32;;;5.32;;
62880;SDS011;48969;49.934;8.596;2023-10-09T13:27:08;10.88;;;4.68;;
62880;SDS011;48969;49.934;8.596;2023-10-09T13:29:34;10.27;;;5.05;;
62880;SDS011;48969;49.934;8.596;2023-10-09T13:32:00;12.07;;;4.88;;
62880;SDS011;48969;49.934;8.596;2023-10-09T13:34:27;9.25;;;4.63;;
62880;SDS011;48969;49.934;8.596;2023-10-09T13:36:53;11.25;;;4.60;;
62880;SDS011;48969;49.934;8.596;2023-10-09T13:39:19;9.07;;;5.00;;
62880;SDS011;48969;49.934;8.596;2023-10-09T13:41:47;11.73;;;4.78;;
62880;SDS011;48969;49.934;8.596;2023-10-09T13:44:12;9.98;;;5.15;;
62880;SDS011;48969;49.934;8.596;2023-10-09T13:46:37;9.73;;;4.97;;
62880;SDS011;48969;49.934;8.596;2023-10-09T13:49:10;9.33;;;5.27;;
62880;SDS011;48969;49.934;8.596;2023-10-09T13:51:40;9.40;;;4.68;;
62880;SDS011;48969;49.934;8.596;2023-10-09T13:54:11;13.18;;;5.07;;
62880;SDS011;48969;49.934;8.596;2023-10-09T13:56:45;8.70;;;4.53;;
62880;SDS011;48969;49.934;8.596;2023-10-09T13:59:10;10.30;;;4.90;;
62880;SDS011;48969;49.934;8.596;2023-10-09T14:01:36;9.15;;;4.10;;
62880;SDS011;48969;49.934;8.596;2023-10-09T14:04:01;11.27;;;4.97;;
62880;SDS011;48969;49.934;8.596;2023-10-09T14:06:26;9.73;;;4.63;;
62880;SDS011;48969;49.934;8.596;2023-10-09T14:09:03;11.18;;;5.00;;
62880;SDS011;48969;49.934;8.596;2023-10-09T14:11:34;10.57;;;4.80;;
62880;SDS011;48969;49.934;8.596;2023-10-09T14:14:03;8.85;;;4.60;;
62880;SDS011;48969;49.934;8.596;2023-10-09T14:16:28;9.30;;;4.50;;
62880;SDS011;48969;49.934;8.596;2023-10-09T14:18:54;9.27;;;4.68;;
62880;SDS011;48969;49.934;8.596;2023-10-09T14:21:22;9.60;;;4.60;;
62880;SDS011;48969;49.934;8.596;2023-10-09T14:23:52;10.10;;;4.43;;
62880;SDS011;48969;49.934;8.596;2023-10-09T14:26:22;9.38;;;4.45;;
62880;SDS011;48969;49.934;8.596;2023-10-09T14:28:48;8.95;;;4.43;;
62880;SDS011;48969;49.934;8.596;2023-10-09T14:31:15;8.73;;;4.55;;
62880;SDS011;48969;49.934;8.596;2023-10-09T14:33:47;8.68;;;4.85;;
62880;SDS011;48969;49.934;8.596;2023-10-09T14:36:16;9.10;;;4.47;;
62880;SDS011;48969;49.934;8.596;2023-10-09T14:38:43;7.82;;;4.22;;
62880;SDS011;48969;49.934;8.596;2023-10-09T14:41:11;7.40;;;4.20;;
62880;SDS011;48969;49.934;8.596;2023-10-09T14:43:37;8.60;;;3.97;;
62880;SDS011;48969;49.934;8.596;2023-10-09T14:46:02;8.10;;;4.38;;
62880;SDS011;48969;49.934;8.596;2023-10-09T14:48:30;8.70;;;4.35;;
62880;SDS011;48969;49.934;8.596;2023-10-09T14:51:02;7.47;;;4.30;;
62880;SDS011;48969;49.934;8.596;2023-10-09T14:53:30;8.57;;;4.10;;
62880;SDS011;48969;49.934;8.596;2023-10-09T14:55:55;7.93;;;4.50;;
62880;SDS011;48969;49.934;8.596;2023-10-09T14:58:21;9.65;;;4.68;;
62880;SDS011;48969;49.934;8.596;2023-10-09T15:00:50;9.60;;;4.82;;
62880;SDS011;48969;49.934;8.596;2023-10-09T15:03:15;9.98;;;4.63;;
62880;SDS011;48969;49.934;8.596;2023-10-09T15:05:41;7.90;;;4.45;;
62880;SDS011;48969;49.934;8.596;2023-10-09T15:08:07;8.93;;;4.88;;
62880;SDS011;48969;49.934;8.596;2023-10-09T15:10:36;7.35;;;4.30;;
62880;SDS011;48969;49.934;8.596;2023-10-09T15:13:03;8.85;;;4.40;;
62880;SDS011;48969;49.934;8.596;2023-10-09T15:15:29;9.70;;;4.82;;
62880;SDS011;48969;49.934;8.596;2023-10-09T15:17:56;9.00;;;4.15;;
62880;SDS011;48969;49.934;8.596;2023-10-09T15:20:21;11.75;;;5.32;;
62880;SDS011;48969;49.934;8.596;2023-10-09T15:22:46;7.40;;;4.57;;
62880;SDS011;48969;49.934;8.596;2023-10-09T15:25:17;7.93;;;4.80;;